Time;durP1;ratioP1;P1;durP2;ratioP2;P2;SDS_P1;SDS_P2;PMS_P1;PMS_P2;Temp;Humidity;BMP_temperature;BMP_pressure;BME280_temperature;BME280_humidity;BME280_pressure;Samples;Min_cycle;Max_cycle;Signal;HPM_P1;HPM_P2
2023/08/05 00:01:01;;;;;;;5.32;2.63;;;;;;;15.63;100.00;101639.75;4952766;28;20051;-81
2023/08/05 00:03:28;;;;;;;5.38;2.58;;;;;;;15.65;100.00;101642.41;4950173;28;20496;-81
2023/08/05 00:05:56;;;;;;;6.25;2.92;;;;;;;15.65;100.00;101642.41;4940511;28;20058;-81
2023/08/05 00:08:24;;;;;;;7.43;2.83;;;;;;;15.62;100.00;101640.69;4921787;28;20062;-80
2023/08/05 00:10:51;;;;;;;7.85;3.53;;;;;;;15.59;100.00;101640.69;4967606;28;20055;-83
2023/08/05 00:13:19;;;;;;;4.78;3.13;;;;;;;15.58;100.00;101645.13;4936461;29;20055;-80
2023/08/05 00:15:46;;;;;;;8.82;3.72;;;;;;;15.57;100.00;101638.03;4930828;28;20047;-80
2023/08/05 00:18:14;;;;;;;5.35;3.30;;;;;;;15.56;100.00;101633.63;4951564;28;20066;-80
2023/08/05 00:20:42;;;;;;;6.32;3.03;;;;;;;15.58;100.00;101644.25;4927161;29;20039;-80
2023/08/05 00:23:09;;;;;;;6.88;2.92;;;;;;;15.58;100.00;101645.13;4920911;28;20051;-80
2023/08/05 00:25:36;;;;;;;8.18;3.28;;;;;;;15.58;100.00;101649.56;4949734;29;20043;-80
2023/08/05 00:28:04;;;;;;;10.05;3.33;;;;;;;15.58;100.00;101636.28;4991758;28;20055;-80
2023/08/05 00:30:31;;;;;;;5.25;2.90;;;;;;;15.60;100.00;101631.84;4927729;28;20058;-80
2023/08/05 00:32:59;;;;;;;7.10;3.00;;;;;;;15.60;100.00;101622.09;4944895;28;20048;-81
2023/08/05 00:35:26;;;;;;;6.35;3.30;;;;;;;15.60;100.00;101626.53;4941952;28;20055;-80
2023/08/05 00:37:53;;;;;;;5.70;3.13;;;;;;;15.59;100.00;101616.78;4932968;28;20043;-80
2023/08/05 00:40:21;;;;;;;8.93;3.35;;;;;;;15.58;100.00;101618.56;4966267;28;20051;-80
2023/08/05 00:42:49;;;;;;;7.78;3.53;;;;;;;15.54;100.00;101622.13;4940797;28;20047;-80
2023/08/05 00:45:16;;;;;;;6.70;3.75;;;;;;;15.53;100.00;101625.66;4950703;29;20047;-80
2023/08/05 00:47:44;;;;;;;8.00;3.65;;;;;;;15.50;100.00;101619.47;4923876;28;20486;-81
2023/08/05 00:50:13;;;;;;;6.97;3.70;;;;;;;15.46;100.00;101615.06;4969891;28;20051;-81
2023/08/05 00:52:42;;;;;;;8.73;4.65;;;;;;;15.43;100.00;101623.06;4944674;28;20051;-81
2023/08/05 00:55:10;;;;;;;5.18;3.58;;;;;;;15.41;100.00;101623.06;4956204;28;20074;-80
2023/08/05 00:57:37;;;;;;;6.43;3.45;;;;;;;15.42;100.00;101618.63;4956331;28;20054;-81
2023/08/05 01:00:06;;;;;;;6.85;3.45;;;;;;;15.40;100.00;101616.84;4962362;28;20047;-80
2023/08/05 01:02:33;;;;;;;5.65;2.88;;;;;;;15.45;100.00;101615.97;4916265;29;20058;-80
2023/08/05 01:05:01;;;;;;;4.38;3.53;;;;;;;15.45;100.00;101614.19;4946221;28;20047;-80
2023/08/05 01:07:30;;;;;;;7.60;3.83;;;;;;;15.46;100.00;101600.00;4944880;28;20054;-81
2023/08/05 01:09:57;;;;;;;7.65;3.58;;;;;;;15.48;100.00;101592.94;4946224;28;20043;-81
2023/08/05 01:12:25;;;;;;;5.93;3.53;;;;;;;15.49;100.00;101596.47;4930450;28;20059;-80
2023/08/05 01:14:52;;;;;;;6.90;3.75;;;;;;;15.50;100.00;101595.56;4949609;29;20040;-81
2023/08/05 01:17:20;;;;;;;5.35;4.13;;;;;;;15.51;100.00;101595.56;4913489;28;20047;-81
2023/08/05 01:19:47;;;;;;;7.03;3.20;;;;;;;15.52;100.00;101600.00;4950872;28;20039;-81
2023/08/05 01:22:41;;;;;;;4.40;3.20;;;;;;;15.50;100.00;101596.47;4943897;28;20051;-81
2023/08/05 01:25:29;;;;;;;5.20;3.40;;;;;;;15.47;100.00;101604.44;4936190;28;20055;-81
2023/08/05 01:28:00;;;;;;;6.05;3.55;;;;;;;15.44;100.00;101601.78;4928095;28;20066;-81
2023/08/05 01:30:29;;;;;;;6.03;3.53;;;;;;;15.42;100.00;101608.88;4966105;28;20051;-81
2023/08/05 01:33:01;;;;;;;5.95;3.45;;;;;;;15.40;100.00;101610.66;4921652;28;20054;-81
2023/08/05 01:35:29;;;;;;;7.72;3.10;;;;;;;15.40;100.00;101600.03;4949029;28;20058;-81
2023/08/05 01:37:57;;;;;;;6.40;3.65;;;;;;;15.39;100.00;101604.47;4949622;28;20484;-81
2023/08/05 01:40:28;;;;;;;7.47;3.75;;;;;;;15.40;100.00;101594.72;4975958;28;20179;-81
2023/08/05 01:42:58;;;;;;;6.40;2.90;;;;;;;15.41;100.00;101591.19;4912237;28;20054;-81
2023/08/05 01:45:26;;;;;;;6.63;4.07;;;;;;;15.42;100.00;101587.63;4952095;28;20062;-81
2023/08/05 01:47:53;;;;;;;4.07;3.22;;;;;;;15.42;100.00;101584.09;4923944;28;20058;-81
2023/08/05 01:50:23;;;;;;;6.97;3.72;;;;;;;15.39;100.00;101585.91;4934316;29;20055;-80
2023/08/05 01:52:51;;;;;;;6.90;4.15;;;;;;;15.36;100.00;101595.63;4955260;28;20059;-80
2023/08/05 01:55:20;;;;;;;7.90;3.53;;;;;;;15.34;100.00;101592.13;4926557;28;21545;-81
2023/08/05 01:57:47;;;;;;;9.95;3.60;;;;;;;15.31;100.00;101594.78;4925902;28;20412;-81
2023/08/05 02:00:16;;;;;;;7.13;4.10;;;;;;;15.29;100.00;101591.25;4940454;28;20043;-80
2023/08/05 02:02:44;;;;;;;4.55;3.55;;;;;;;15.25;100.00;101584.19;4964965;28;20055;-80
2023/08/05 02:05:12;;;;;;;7.47;3.55;;;;;;;15.25;100.00;101586.84;4941564;28;20094;-80
2023/08/05 02:07:40;;;;;;;3.67;3.28;;;;;;;15.22;100.00;101587.75;4963762;28;20048;-80
2023/08/05 02:10:07;;;;;;;6.13;3.40;;;;;;;15.21;100.00;101591.28;4966417;28;20425;-82
2023/08/05 02:12:35;;;;;;;8.05;3.50;;;;;;;15.20;100.00;101584.22;4935899;28;20055;-81
2023/08/05 02:15:02;;;;;;;6.57;3.97;;;;;;;15.19;100.00;101585.97;4902485;28;20048;-80
2023/08/05 02:17:29;;;;;;;8.40;4.03;;;;;;;15.18;100.00;101581.56;4960571;28;20054;-81
2023/08/05 02:19:57;;;;;;;8.27;3.60;;;;;;;15.19;100.00;101587.75;4958207;28;20732;-81
2023/08/05 02:22:24;;;;;;;5.50;3.88;;;;;;;15.17;100.00;101574.47;4932084;29;20056;-81
2023/08/05 02:24:52;;;;;;;6.65;4.03;;;;;;;15.19;100.00;101579.78;4940857;29;20047;-82
2023/08/05 02:27:21;;;;;;;4.40;3.25;;;;;;;15.17;100.00;101576.25;4924273;29;20051;-82
2023/08/05 02:29:49;;;;;;;8.68;3.80;;;;;;;15.15;100.00;101576.25;4929635;28;20062;-82
2023/08/05 02:32:16;;;;;;;5.53;3.35;;;;;;;15.12;100.00;101581.59;4949187;28;20048;-81
2023/08/05 02:34:44;;;;;;;4.47;3.47;;;;;;;15.11;100.00;101578.94;4931699;28;20449;-82
2023/08/05 02:37:11;;;;;;;6.63;3.80;;;;;;;15.07;100.00;101572.75;4946735;28;20050;-82
2023/08/05 02:39:40;;;;;;;6.40;3.80;;;;;;;15.04;100.00;101577.19;4951070;28;20051;-81
2023/08/05 02:42:08;;;;;;;7.55;4.22;;;;;;;15.00;100.00;101579.84;4955830;28;20062;-81
2023/08/05 02:44:36;;;;;;;7.95;3.95;;;;;;;14.94;100.00;101577.22;4935576;28;20058;-80
2023/08/05 02:47:04;;;;;;;8.25;4.50;;;;;;;14.91;100.00;101582.53;4927563;28;20039;-80
2023/08/05 02:49:32;;;;;;;7.03;3.55;;;;;;;14.88;100.00;101589.66;4963180;28;20048;-81
2023/08/05 02:52:00;;;;;;;4.18;3.63;;;;;;;14.84;100.00;101585.22;4928465;29;20043;-80
2023/08/05 02:54:27;;;;;;;5.15;4.25;;;;;;;14.80;100.00;101595.84;4947592;28;20047;-83
2023/08/05 02:56:56;;;;;;;9.95;4.43;;;;;;;14.78;100.00;101589.66;4952924;28;20088;-80
2023/08/05 02:59:23;;;;;;;7.38;4.05;;;;;;;14.70;100.00;101588.78;4931390;28;20705;-81
2023/08/05 03:01:50;;;;;;;6.97;4.28;;;;;;;14.63;100.00;101597.66;4935090;28;20064;-81
2023/08/05 03:04:19;;;;;;;10.63;5.25;;;;;;;14.56;100.00;101596.75;4953848;28;20062;-81
2023/08/05 03:06:47;;;;;;;6.50;4.55;;;;;;;14.51;100.00;101598.50;4931104;28;20047;-81
2023/08/05 03:09:15;;;;;;;8.57;4.10;;;;;;;14.45;100.00;101593.22;4951570;29;20055;-81
2023/08/05 03:11:43;;;;;;;6.50;4.15;;;;;;;14.40;100.00;101598.53;4954267;28;20551;-81
2023/08/05 03:14:11;;;;;;;10.52;4.50;;;;;;;14.38;100.00;101592.31;4933957;28;20051;-81
2023/08/05 03:16:39;;;;;;;6.43;3.97;;;;;;;14.37;100.00;101590.56;4933932;28;20059;-81
2023/08/05 03:19:14;;;;;;;7.43;4.28;;;;;;;14.36;100.00;101591.44;4970633;28;20062;-81
2023/08/05 03:21:42;;;;;;;5.45;4.28;;;;;;;14.35;100.00;101583.50;4959393;28;20055;-80
2023/08/05 03:24:12;;;;;;;5.78;4.00;;;;;;;14.33;100.00;101583.50;4938103;28;20055;-81
2023/08/05 03:26:43;;;;;;;8.98;4.10;;;;;;;14.33;100.00;101579.94;4945001;28;20043;-81
2023/08/05 03:29:13;;;;;;;9.00;4.90;;;;;;;14.35;100.00;101578.22;4945081;28;20055;-81
2023/08/05 03:31:42;;;;;;;7.32;4.20;;;;;;;14.33;100.00;101575.56;4931456;28;20078;-81
2023/08/05 03:34:11;;;;;;;6.15;4.22;;;;;;;14.33;100.00;101578.22;4981866;28;20059;-80
2023/08/05 03:36:39;;;;;;;9.82;4.45;;;;;;;14.32;100.00;101567.59;4936939;28;23698;-82
2023/08/05 03:39:08;;;;;;;7.63;4.15;;;;;;;14.31;100.00;101563.16;4970212;28;20051;-82
2023/08/05 03:41:36;;;;;;;9.93;4.35;;;;;;;14.30;100.00;101578.19;4951460;28;20054;-80
2023/08/05 03:44:03;;;;;;;6.95;4.50;;;;;;;14.30;100.00;101575.53;4944020;28;20043;-81
2023/08/05 03:46:31;;;;;;;6.38;4.60;;;;;;;14.31;100.00;101574.69;4936860;29;20055;-80
2023/08/05 03:49:00;;;;;;;5.47;4.38;;;;;;;14.30;100.00;101574.66;4925404;28;20501;-80
2023/08/05 03:51:27;;;;;;;7.95;4.68;;;;;;;14.29;100.00;101572.88;4953040;28;20508;-80
2023/08/05 03:53:56;;;;;;;9.98;4.63;;;;;;;14.28;100.00;101574.66;4927838;29;20522;-81
2023/08/05 03:56:27;;;;;;;8.27;4.25;;;;;;;14.28;100.00;101563.19;4950103;28;20058;-82
2023/08/05 03:58:56;;;;;;;9.48;4.00;;;;;;;14.28;100.00;101565.84;4978674;28;20051;-82
2023/08/05 04:01:26;;;;;;;5.20;3.63;;;;;;;14.26;100.00;101564.97;4949195;28;20063;-81
2023/08/05 04:03:54;;;;;;;;;;;;;;;14.26;100.00;101559.66;4931960;28;20381;-81
2023/08/05 04:06:25;;;;;;;6.05;4.20;;;;;;;14.26;100.00;101563.19;4968641;28;19969;-81
2023/08/05 04:08:54;;;;;;;5.30;4.03;;;;;;;14.26;100.00;101560.53;4910588;29;20051;-80
2023/08/05 04:11:21;;;;;;;6.50;4.03;;;;;;;14.27;100.00;101561.41;4934811;28;20055;-81
2023/08/05 04:13:52;;;;;;;6.88;3.83;;;;;;;14.27;100.00;101559.63;4954062;28;20047;-81
2023/08/05 04:16:21;;;;;;;7.60;3.97;;;;;;;14.29;100.00;101556.97;4939282;28;20700;-80
2023/08/05 04:18:49;;;;;;;5.53;4.10;;;;;;;14.28;100.00;101552.59;4919313;29;20044;-81
2023/08/05 04:21:19;;;;;;;6.47;3.60;;;;;;;14.29;100.00;101543.72;4946223;29;20066;-81
2023/08/05 04:23:48;;;;;;;5.50;3.65;;;;;;;14.28;100.00;101548.16;4931809;28;20055;-80
2023/08/05 04:26:16;;;;;;;9.10;3.97;;;;;;;14.26;100.00;101534.03;4926094;28;20051;-79
2023/08/05 04:28:43;;;;;;;9.15;3.28;;;;;;;14.26;100.00;101531.38;4932097;29;20044;-80
2023/08/05 04:31:11;;;;;;;5.75;3.67;;;;;;;14.28;100.00;101520.78;4927707;29;20050;-81
2023/08/05 04:33:38;;;;;;;6.90;3.75;;;;;;;14.30;100.00;101521.66;4968342;28;20059;-81
2023/08/05 04:36:06;;;;;;;6.55;3.60;;;;;;;14.31;100.00;101521.66;4947107;28;20504;-81
2023/08/05 04:38:34;;;;;;;4.88;3.65;;;;;;;14.33;100.00;101518.97;4945347;28;20042;-81
2023/08/05 04:41:01;;;;;;;4.65;3.70;;;;;;;14.36;100.00;101518.97;4914479;28;20055;-81
2023/08/05 04:43:30;;;;;;;6.53;3.80;;;;;;;14.38;100.00;101514.56;4942105;28;20666;-81
2023/08/05 04:45:58;;;;;;;5.15;3.10;;;;;;;14.40;100.00;101511.03;4935744;28;20074;-81
2023/08/05 04:48:25;;;;;;;6.43;3.78;;;;;;;14.41;100.00;101507.47;4937026;29;20047;-81
2023/08/05 04:50:55;;;;;;;4.03;3.28;;;;;;;14.44;100.00;101501.28;4921906;29;20047;-80
2023/08/05 04:53:22;;;;;;;5.25;3.95;;;;;;;14.46;100.00;101503.94;4944286;28;20051;-80
2023/08/05 04:55:49;;;;;;;5.63;3.80;;;;;;;14.79;100.00;101509.16;4922108;28;20047;-79
2023/08/05 04:58:17;;;;;;;6.45;4.47;;;;;;;15.54;100.00;101499.06;4928614;29;20047;-80
2023/08/05 05:00:46;;;;;;;5.57;2.97;;;;;;;16.23;100.00;101493.16;4953032;29;20055;-80
2023/08/05 05:03:18;;;;;;;6.93;3.53;;;;;;;16.95;100.00;101489.72;4938521;28;20078;-80
2023/08/05 05:05:46;;;;;;;3.03;2.60;;;;;;;17.70;100.00;101481.53;4934729;28;20039;-80
2023/08/05 05:08:14;;;;;;;2.90;2.60;;;;;;;18.39;100.00;101482.13;4951212;28;20508;-80
2023/08/05 05:10:46;;;;;;;5.80;2.80;;;;;;;18.98;100.00;101481.84;4911620;28;20058;-81
2023/08/05 05:13:13;;;;;;;6.97;2.50;;;;;;;19.43;100.00;101487.06;4940923;28;20062;-80
2023/08/05 05:15:41;;;;;;;4.53;2.50;;;;;;;19.89;100.00;101483.31;4938383;29;20062;-81
2023/08/05 05:18:08;;;;;;;4.22;2.33;;;;;;;20.01;100.00;101476.75;4928047;29;20120;-80
2023/08/05 05:20:36;;;;;;;3.28;2.28;;;;;;;19.71;100.00;101475.72;4944194;29;20467;-80
2023/08/05 05:23:03;;;;;;;3.95;2.30;;;;;;;19.41;100.00;101481.78;4947091;28;20047;-81
2023/08/05 05:25:31;;;;;;;7.47;2.17;;;;;;;19.61;100.00;101472.38;4925052;28;20059;-80
2023/08/05 05:27:58;;;;;;;2.60;2.25;;;;;;;20.06;100.00;101465.00;4952220;29;20051;-81
2023/08/05 05:30:25;;;;;;;3.28;2.08;;;;;;;20.48;100.00;101463.88;4947601;28;20079;-81
2023/08/05 05:32:53;;;;;;;4.57;2.20;;;;;;;20.87;100.00;101463.69;4952496;29;20500;-80
2023/08/05 05:35:21;;;;;;;4.53;2.92;;;;;;;20.77;100.00;101464.88;4929050;28;20414;-80
2023/08/05 05:37:48;;;;;;;4.57;1.75;;;;;;;20.47;100.00;101459.44;4954703;28;20073;-80
2023/08/05 05:40:16;;;;;;;2.67;1.98;;;;;;;20.15;100.00;101454.97;4942986;28;20050;-80
2023/08/05 05:42:44;;;;;;;3.90;2.30;;;;;;;19.97;100.00;101451.00;4912752;29;20054;-81
2023/08/05 05:45:12;;;;;;;7.20;2.05;;;;;;;19.94;100.00;101445.72;4935217;28;20054;-81
2023/08/05 05:47:40;;;;;;;4.13;2.03;;;;;;;19.86;100.00;101449.47;4934918;28;20058;-81
2023/08/05 05:50:08;;;;;;;6.03;2.25;;;;;;;19.68;100.00;101452.63;4940414;28;20050;-81
2023/08/05 05:52:36;;;;;;;5.30;2.03;;;;;;;19.44;100.00;101454.94;4942576;28;20420;-80
2023/08/05 05:55:04;;;;;;;5.03;2.22;;;;;;;19.23;100.00;101450.13;4948189;28;20050;-83
2023/08/05 05:57:31;;;;;;;3.90;1.73;;;;;;;19.08;100.00;101454.91;4912966;28;20059;-81
2023/08/05 05:59:59;;;;;;;2.45;1.95;;;;;;;19.01;100.00;101458.63;4937192;28;20051;-80
2023/08/05 06:02:29;;;;;;;2.28;1.73;;;;;;;19.02;100.00;101452.38;4965701;28;20059;-81
2023/08/05 06:04:57;;;;;;;5.18;2.30;;;;;;;19.16;100.00;101454.72;4947250;28;20496;-81
2023/08/05 06:07:24;;;;;;;4.32;2.22;;;;;;;19.55;100.00;101456.50;4976817;28;20516;-81
2023/08/05 06:09:52;;;;;;;6.45;2.33;;;;;;;19.71;100.00;101452.50;4930578;28;20047;-81
2023/08/05 06:12:22;;;;;;;4.95;1.88;;;;;;;19.75;100.00;101448.00;4907206;28;20103;-81
2023/08/05 06:14:50;;;;;;;2.08;1.77;;;;;;;19.73;100.00;101450.72;4940693;28;20047;-81
2023/08/05 06:17:18;;;;;;;2.80;1.77;;;;;;;19.75;100.00;101448.88;4950969;28;20517;-82
2023/08/05 06:19:46;;;;;;;4.47;1.55;;;;;;;19.75;100.00;101440.84;4942246;28;20039;-83
2023/08/05 06:22:14;;;;;;;4.35;1.77;;;;;;;19.71;100.00;101449.84;4935130;28;20054;-81
2023/08/05 06:24:41;;;;;;;5.88;1.73;;;;;;;19.63;100.00;101447.38;4929566;28;20047;-79
2023/08/05 06:27:09;;;;;;;2.15;1.70;;;;;;;19.55;100.00;101451.16;4939234;28;20056;-81
2023/08/05 06:29:37;;;;;;;4.15;1.65;;;;;;;19.38;100.00;101443.56;4909432;29;20048;-80
2023/08/05 06:32:04;;;;;;;3.63;1.55;;;;;;;19.17;100.00;101450.25;4941097;29;20062;-81
2023/08/05 06:34:32;;;;;;;7.70;1.48;;;;;;;19.00;100.00;101448.88;4950391;28;20147;-80
2023/08/05 06:37:00;;;;;;;4.20;1.50;;;;;;;18.87;100.00;101450.03;4926405;29;20582;-80
2023/08/05 06:39:27;;;;;;;2.78;1.52;;;;;;;18.76;100.00;101444.03;4952168;28;20082;-81
2023/08/05 06:41:54;;;;;;;5.40;2.22;;;;;;;18.67;100.00;101445.97;4946437;28;20055;-81
2023/08/05 06:44:28;;;;;;;6.70;2.40;;;;;;;18.67;100.00;101453.97;4930554;28;20100;-80
2023/08/05 06:46:58;;;;;;;2.42;1.65;;;;;;;18.72;100.00;101459.22;4941819;29;20051;-82
2023/08/05 06:49:25;;;;;;;7.57;2.35;;;;;;;18.79;100.00;101457.28;4939517;29;20050;-82
2023/08/05 06:51:52;;;;;;;5.38;1.80;;;;;;;18.93;100.00;101454.38;4958219;28;20051;-80
2023/08/05 06:54:23;;;;;;;4.32;1.85;;;;;;;19.04;100.00;101439.00;4947902;28;20416;-80
2023/08/05 06:56:51;;;;;;;3.88;1.90;;;;;;;19.05;100.00;101438.97;4938104;28;20408;-81
2023/08/05 06:59:19;;;;;;;3.05;1.60;;;;;;;19.04;100.00;101436.31;4966703;28;20043;-79
2023/08/05 07:01:47;;;;;;;2.03;1.75;;;;;;;19.01;100.00;101445.25;4936190;28;20057;-80
2023/08/05 07:04:14;;;;;;;3.60;2.00;;;;;;;18.93;100.00;101447.22;4979251;28;20085;-80
2023/08/05 07:06:44;;;;;;;3.10;1.77;;;;;;;18.92;100.00;101442.78;4956207;28;20047;-79
2023/08/05 07:09:14;;;;;;;4.57;1.98;;;;;;;18.83;100.00;101435.00;4933904;29;20047;-81
2023/08/05 07:11:41;;;;;;;5.13;1.88;;;;;;;18.80;100.00;101433.25;4952280;28;20052;-79
2023/08/05 07:14:09;;;;;;;3.65;1.95;;;;;;;18.81;100.00;101442.13;4935817;29;20052;-79
2023/08/05 07:16:36;;;;;;;2.45;1.52;;;;;;;18.87;100.00;101439.38;4927622;28;20101;-77
2023/08/05 07:19:04;;;;;;;4.32;1.60;;;;;;;18.91;100.00;101441.06;4935352;29;20039;-79
2023/08/05 07:21:32;;;;;;;2.35;1.63;;;;;;;18.91;100.00;101441.06;4980268;28;20051;-80
2023/08/05 07:23:59;;;;;;;5.13;1.90;;;;;;;18.99;100.00;101440.88;4960532;28;20047;-80
2023/08/05 07:26:27;;;;;;;2.90;1.90;;;;;;;19.15;100.00;101436.94;4925322;28;20420;-81
2023/08/05 07:28:54;;;;;;;4.63;1.73;;;;;;;19.33;100.00;101435.63;4921231;29;20058;-79
2023/08/05 07:31:22;;;;;;;3.17;1.70;;;;;;;19.48;100.00;101434.38;4922539;28;20043;-80
2023/08/05 07:33:51;;;;;;;4.63;1.83;;;;;;;19.66;100.00;101449.97;4963759;28;20113;-79
2023/08/05 07:36:22;;;;;;;6.50;1.83;;;;;;;19.80;100.00;101440.75;4954449;28;20070;-78
2023/08/05 07:38:51;;;;;;;6.05;2.08;;;;;;;19.97;100.00;101440.31;4927330;28;20047;-79
2023/08/05 07:41:25;;;;;;;2.28;1.80;;;;;;;20.17;100.00;101440.66;4956744;28;20059;-79
2023/08/05 07:43:58;;;;;;;4.60;2.10;;;;;;;20.28;100.00;101443.00;4936772;28;20051;-80
2023/08/05 07:46:26;;;;;;;3.58;1.80;;;;;;;20.22;100.00;101438.72;4932949;28;21097;-80
2023/08/05 07:48:55;;;;;;;2.00;1.65;;;;;;;20.19;100.00;101437.94;4948100;29;20056;-79
2023/08/05 07:51:25;;;;;;;2.00;1.80;;;;;;;20.10;100.00;101428.38;4930282;28;20071;-79
2023/08/05 07:53:55;;;;;;;3.00;1.50;;;;;;;20.02;100.00;101428.56;4934364;28;20054;-80
2023/08/05 07:56:23;;;;;;;4.60;1.80;;;;;;;19.92;100.00;101418.16;4928466;29;20091;-81
2023/08/05 07:58:51;;;;;;;4.70;2.15;;;;;;;19.87;100.00;101412.94;4932474;28;20046;-80
2023/08/05 08:01:22;;;;;;;5.22;2.65;;;;;;;19.85;100.00;101407.63;4939434;28;20058;-78
2023/08/05 08:04:01;;;;;;;;;;;;;;;19.84;100.00;101410.34;4933973;28;20071;-79
2023/08/05 08:06:32;;;;;;;210.70;43.65;;;;;;;19.84;100.00;101404.97;4959725;28;19929;-81
2023/08/05 08:09:00;;;;;;;7.43;2.63;;;;;;;19.86;100.00;101398.66;4931027;28;20065;-78
2023/08/05 08:11:27;;;;;;;5.80;2.10;;;;;;;19.84;100.00;101395.16;4970016;28;20062;-79
2023/08/05 08:13:54;;;;;;;8.77;2.17;;;;;;;19.82;100.00;101391.66;4926955;28;20062;-80
2023/08/05 08:16:22;;;;;;;2.40;1.40;;;;;;;19.80;100.00;101398.84;4955825;28;20070;-80
2023/08/05 08:18:49;;;;;;;5.32;1.70;;;;;;;19.80;100.00;101385.47;4919571;28;20116;-81
2023/08/05 08:21:17;;;;;;;4.10;1.77;;;;;;;19.81;100.00;101392.59;4944561;28;20054;-80
2023/08/05 08:23:44;;;;;;;3.45;1.40;;;;;;;19.79;100.00;101383.72;4925792;28;20405;-79
2023/08/05 08:26:12;;;;;;;4.22;1.40;;;;;;;19.76;100.00;101381.13;4923529;29;20043;-80
2023/08/05 08:28:40;;;;;;;5.25;1.58;;;;;;;19.74;100.00;101384.75;4942384;28;20473;-81
2023/08/05 08:31:07;;;;;;;2.60;1.33;;;;;;;19.76;100.00;101382.94;4920876;28;20043;-80
2023/08/05 08:33:35;;;;;;;4.15;1.40;;;;;;;19.79;100.00;101383.72;4979100;28;20047;-80
2023/08/05 08:36:02;;;;;;;1.65;1.50;;;;;;;19.85;100.00;101380.88;4951779;28;20070;-80
2023/08/05 08:38:30;;;;;;;2.63;1.75;;;;;;;19.85;100.00;101374.66;4948436;28;20047;-79
2023/08/05 08:40:58;;;;;;;1.60;1.50;;;;;;;19.85;100.00;101374.66;4970024;28;20043;-82
2023/08/05 08:43:26;;;;;;;2.22;1.08;;;;;;;19.85;100.00;101372.00;4936056;28;20066;-79
2023/08/05 08:45:55;;;;;;;3.00;1.60;;;;;;;19.87;100.00;101367.47;4911579;28;20054;-79
2023/08/05 08:48:24;;;;;;;2.25;1.83;;;;;;;19.96;100.00;101366.31;4941757;28;20054;-78
2023/08/05 08:50:53;;;;;;;2.58;1.50;;;;;;;20.08;100.00;101368.66;4930769;28;20047;-81
2023/08/05 08:53:23;;;;;;;3.80;1.88;;;;;;;20.16;100.00;101358.63;4961885;28;20058;-80
2023/08/05 08:55:51;;;;;;;3.63;1.23;;;;;;;20.20;100.00;101354.94;4915718;28;20051;-79
2023/08/05 08:58:19;;;;;;;1.30;1.20;;;;;;;20.31;100.00;101356.44;4932242;29;20051;-79
2023/08/05 09:00:48;;;;;;;2.50;1.20;;;;;;;20.38;100.00;101358.88;4955195;28;20082;-79
2023/08/05 09:03:18;;;;;;;1.38;1.10;;;;;;;20.41;100.00;101348.06;4948604;29;20054;-78
2023/08/05 09:05:49;;;;;;;1.17;1.08;;;;;;;20.46;100.00;101339.91;4924278;28;20054;-77
2023/08/05 09:08:16;;;;;;;4.18;1.30;;;;;;;20.52;100.00;101339.72;4967563;28;20043;-76
2023/08/05 09:10:44;;;;;;;2.92;1.05;;;;;;;20.59;100.00;101337.75;4939422;28;20054;-77
2023/08/05 09:13:16;;;;;;;3.63;1.17;;;;;;;20.66;100.00;101322.38;4936984;28;20043;-77
2023/08/05 09:15:45;;;;;;;1.27;1.20;;;;;;;20.73;100.00;101322.13;4954619;28;20066;-77
2023/08/05 09:18:14;;;;;;;2.20;1.42;;;;;;;20.76;100.00;101323.88;4931881;28;20055;-79
2023/08/05 09:20:41;;;;;;;0.90;0.90;;;;;;;20.79;100.00;101318.38;4934536;28;20055;-80
2023/08/05 09:23:10;;;;;;;1.30;1.15;;;;;;;20.86;100.00;101330.66;4964828;28;20059;-82
2023/08/05 09:25:41;;;;;;;1.08;0.98;;;;;;;20.98;100.00;101329.38;4943019;28;20050;-80
2023/08/05 09:28:08;;;;;;;1.98;1.30;;;;;;;21.09;100.00;101312.97;4934965;28;20054;-79
2023/08/05 09:30:36;;;;;;;3.33;1.23;;;;;;;21.12;99.59;101302.16;4951980;29;20420;-80
2023/08/05 09:33:05;;;;;;;3.25;1.50;;;;;;;21.16;99.35;101299.31;4918608;28;20047;-79
2023/08/05 09:35:34;;;;;;;4.15;1.52;;;;;;;21.14;99.58;101294.94;4959255;28;20078;-79
2023/08/05 09:38:01;;;;;;;2.58;1.33;;;;;;;21.11;99.42;101295.03;4954512;28;20050;-80
2023/08/05 09:40:36;;;;;;;3.05;1.50;;;;;;;21.03;98.21;101292.63;4967129;28;20035;-79
2023/08/05 09:43:07;;;;;;;1.30;1.20;;;;;;;21.08;99.44;101293.34;4940836;28;20063;-80
2023/08/05 09:45:35;;;;;;;1.92;1.25;;;;;;;21.13;98.68;101294.03;4923747;28;20052;-78
2023/08/05 09:48:04;;;;;;;1.05;1.05;;;;;;;21.20;98.42;101292.03;4927462;28;20055;-78
2023/08/05 09:50:31;;;;;;;2.63;1.50;;;;;;;21.28;97.83;101289.09;4929642;28;20081;-78
2023/08/05 09:53:01;;;;;;;1.75;1.10;;;;;;;21.34;96.73;101278.16;4915955;29;20058;-79
2023/08/05 09:55:29;;;;;;;1.50;1.30;;;;;;;21.35;96.93;101270.06;4946280;29;20063;-80
2023/08/05 09:57:56;;;;;;;1.42;1.33;;;;;;;21.37;96.09;101268.22;4974503;28;20091;-80
2023/08/05 10:00:27;;;;;;;3.13;1.30;;;;;;;21.45;91.62;101267.97;4929708;28;20047;-80
2023/08/05 10:02:56;;;;;;;1.50;1.40;;;;;;;21.46;94.92;101275.09;4933106;28;20070;-80
2023/08/05 10:05:26;;;;;;;2.35;1.30;;;;;;;21.46;95.01;101279.59;4949477;28;20078;-80
2023/08/05 10:07:54;;;;;;;2.08;1.13;;;;;;;21.38;93.19;101261.94;4932274;28;20492;-80
2023/08/05 10:10:21;;;;;;;3.70;1.48;;;;;;;21.39;95.22;101266.34;4932585;28;20047;-80
2023/08/05 10:13:04;;;;;;;1.80;1.35;;;;;;;21.41;93.88;101260.94;4954817;28;20036;-80
2023/08/05 10:15:36;;;;;;;1.65;1.30;;;;;;;21.41;93.63;101256.44;4953428;28;20039;-80
2023/08/05 10:18:11;;;;;;;1.67;1.20;;;;;;;21.46;91.77;101253.66;4936247;28;20066;-81
2023/08/05 10:20:38;;;;;;;2.35;1.63;;;;;;;21.52;92.50;101242.69;4946980;28;20055;-81
2023/08/05 10:23:13;;;;;;;2.00;1.38;;;;;;;21.68;92.80;101236.75;4916670;29;20764;-79
2023/08/05 10:25:50;;;;;;;2.22;1.50;;;;;;;21.76;90.20;101226.66;4938084;29;20050;-80
2023/08/05 10:28:24;;;;;;;2.95;1.20;;;;;;;21.83;91.90;101224.59;4970728;28;20753;-79
2023/08/05 10:30:53;;;;;;;2.90;1.50;;;;;;;21.90;91.80;101226.13;4957232;28;20051;-79
2023/08/05 10:33:21;;;;;;;1.30;1.20;;;;;;;21.98;91.70;101214.16;4987107;28;20404;-79
2023/08/05 10:35:49;;;;;;;1.48;1.38;;;;;;;21.95;90.24;101218.78;4931870;28;20062;-80
2023/08/05 10:38:23;;;;;;;1.40;1.30;;;;;;;21.88;90.35;101214.56;4916704;29;20047;-79
2023/08/05 10:41:03;;;;;;;3.10;1.00;;;;;;;21.84;90.01;101211.13;4951850;28;20058;-79
2023/08/05 10:43:34;;;;;;;1.23;1.13;;;;;;;21.81;89.16;101219.28;4939965;28;20055;-79
2023/08/05 10:46:05;;;;;;;1.75;1.30;;;;;;;21.70;87.92;101211.66;4960075;28;20551;-80
2023/08/05 10:48:44;;;;;;;2.80;1.25;;;;;;;21.60;86.13;101212.91;4969532;28;20084;-80
2023/08/05 10:51:23;;;;;;;2.42;1.10;;;;;;;21.53;87.22;101212.28;4934409;28;20818;-80
2023/08/05 10:53:53;;;;;;;2.67;1.08;;;;;;;21.46;88.08;101194.66;4913002;28;20051;-80
2023/08/05 10:56:42;;;;;;;;;;;;;;;21.36;83.82;101201.25;4942098;28;20055;-80
2023/08/05 10:59:09;;;;;;;1.48;1.13;;;;;;;21.31;88.52;101203.25;4955306;28;19926;-81
2023/08/05 11:01:56;;;;;;;1.75;1.20;;;;;;;21.25;88.35;101196.28;4949019;29;20897;-78
2023/08/05 11:04:33;;;;;;;2.28;1.30;;;;;;;21.23;89.76;101187.44;4948139;28;20058;-78
2023/08/05 11:07:02;;;;;;;2.10;1.40;;;;;;;21.27;91.36;101190.88;4908993;28;20418;-78
2023/08/05 11:09:33;;;;;;;1.20;1.10;;;;;;;21.28;90.89;101189.94;4935690;28;20047;-77
2023/08/05 11:12:01;;;;;;;1.40;1.30;;;;;;;21.26;89.62;101181.94;4966894;28;20051;-79
2023/08/05 11:14:30;;;;;;;1.13;1.02;;;;;;;21.31;89.73;101176.44;4966956;28;20086;-78
2023/08/05 11:17:07;;;;;;;1.38;1.27;;;;;;;21.39;89.92;101177.03;4939735;28;20070;-78
2023/08/05 11:19:55;;;;;;;3.13;1.63;;;;;;;21.58;88.02;101162.03;4943828;28;20051;-77
2023/08/05 11:22:35;;;;;;;3.83;1.50;;;;;;;21.83;88.53;101149.47;4941214;28;20410;-77
2023/08/05 11:25:03;;;;;;;3.15;1.40;;;;;;;22.07;87.73;101143.16;4939476;28;20060;-77
2023/08/05 11:27:39;;;;;;;2.25;1.35;;;;;;;22.22;86.85;101149.72;4952328;28;20059;-77